createdAt,value
2018-06-21T00:02:22.332Z,72.97
2018-06-21T00:04:51.104Z,73.18
2018-06-21T00:07:19.837Z,72.47
2018-06-21T00:09:48.621Z,73.38
2018-06-21T00:12:17.687Z,73.19
2018-06-21T00:14:46.445Z,72.93
2018-06-21T00:17:15.248Z,73.39
2018-06-21T00:19:44.128Z,72.90
2018-06-21T00:22:12.941Z,74.27
2018-06-21T00:24:42.024Z,73.00
2018-06-21T00:27:10.831Z,73.95
2018-06-21T00:29:39.607Z,73.82
2018-06-21T00:32:08.489Z,73.33
2018-06-21T00:34:37.286Z,73.77
2018-06-21T00:37:06.270Z,73.60
2018-06-21T00:39:35.362Z,74.00
2018-06-21T00:42:04.222Z,73.90
2018-06-21T00:44:33.099Z,74.14
2018-06-21T00:47:02.252Z,73.70
2018-06-21T00:49:31.048Z,74.46
2018-06-21T00:51:59.940Z,74.80
2018-06-21T00:54:28.749Z,74.12
2018-06-21T00:56:57.767Z,73.74
2018-06-21T00:59:26.519Z,74.31
2018-06-21T01:01:55.463Z,74.37
2018-06-21T01:04:24.236Z,74.50
2018-06-21T01:06:53.011Z,74.77
2018-06-21T01:09:21.940Z,74.95
2018-06-21T01:11:50.713Z,74.95
2018-06-21T01:14:19.529Z,74.75
2018-06-21T01:16:48.298Z,74.54
2018-06-21T01:19:17.108Z,75.40
2018-06-21T01:21:45.934Z,75.00
2018-06-21T01:24:15.050Z,75.64
2018-06-21T01:26:43.815Z,75.55
2018-06-21T01:29:12.608Z,75.20
2018-06-21T01:31:41.391Z,75.16
2018-06-21T01:34:10.135Z,76.22
2018-06-21T01:36:38.876Z,75.65
2018-06-21T01:39:08.769Z,76.05
2018-06-21T01:41:38.038Z,76.39
2018-06-21T01:44:06.986Z,77.14
2018-06-21T01:46:35.671Z,76.57
2018-06-21T01:49:04.522Z,75.99
2018-06-21T01:51:33.280Z,76.79
2018-06-21T01:54:02.096Z,76.59
2018-06-21T01:56:30.860Z,76.03
2018-06-21T01:58:59.758Z,77.26
2018-06-21T02:01:28.518Z,77.03
2018-06-21T02:03:57.351Z,76.99
2018-06-21T02:06:26.114Z,77.19
2018-06-21T02:08:54.881Z,76.95
2018-06-21T02:11:23.566Z,76.50
2018-06-21T02:13:52.331Z,77.14
2018-06-21T02:16:20.962Z,76.69
2018-06-21T02:18:49.824Z,76.92
2018-06-21T02:21:18.829Z,76.82
2018-06-21T02:23:47.847Z,77.54
2018-06-21T02:26:16.855Z,76.96
2018-06-21T02:28:45.650Z,77.04
2018-06-21T02:31:14.464Z,77.29
2018-06-21T02:33:43.369Z,77.07
2018-06-21T02:36:12.425Z,76.81
2018-06-21T02:38:41.376Z,77.17
2018-06-21T02:41:10.495Z,76.97
2018-06-21T02:43:39.529Z,76.39
2018-06-21T02:46:08.528Z,77.66
2018-06-21T02:48:37.863Z,77.14
2018-06-21T02:51:06.937Z,76.83
2018-06-21T02:53:35.930Z,77.08
2018-06-21T02:56:04.985Z,77.01
2018-06-21T02:58:33.801Z,77.09
2018-06-21T03:01:02.736Z,78.50
2018-06-21T03:03:31.736Z,77.71
2018-06-21T03:06:01.030Z,77.37
2018-06-21T03:08:30.080Z,78.13
2018-06-21T03:10:59.116Z,78.73
2018-06-21T03:13:28.143Z,80.64
2018-06-21T03:15:57.188Z,81.26
2018-06-21T03:18:26.449Z,81.79
2018-06-21T03:20:55.162Z,82.44
2018-06-21T03:23:24.020Z,82.26
2018-06-21T03:25:52.861Z,82.67
2018-06-21T03:28:21.707Z,82.73
2018-06-21T03:30:50.693Z,83.77
2018-06-21T03:33:19.701Z,84.18
2018-06-21T03:35:48.358Z,83.96
2018-06-21T03:38:17.220Z,84.75
2018-06-21T03:40:46.020Z,84.80
2018-06-21T03:43:15.408Z,85.92
2018-06-21T03:45:50.218Z,85.87
2018-06-21T03:48:19.069Z,85.87
2018-06-21T03:50:47.928Z,86.01
2018-06-21T03:53:16.561Z,86.58
2018-06-21T03:55:45.337Z,85.64
2018-06-21T03:58:14.176Z,85.82
2018-06-21T04:00:42.973Z,85.69
2018-06-21T04:03:11.999Z,84.77
2018-06-21T04:05:40.684Z,84.61
2018-06-21T04:08:09.589Z,84.75
2018-06-21T04:10:38.473Z,84.87
2018-06-21T04:13:07.271Z,85.28
2018-06-21T04:15:36.339Z,86.09
2018-06-21T04:18:04.951Z,86.54
2018-06-21T04:20:33.896Z,86.92
2018-06-21T04:23:02.638Z,86.89
2018-06-21T04:25:31.338Z,87.72
2018-06-21T04:28:00.451Z,88.55
2018-06-21T04:30:29.276Z,88.06
2018-06-21T04:32:57.892Z,88.31
2018-06-21T04:35:26.695Z,88.36
2018-06-21T04:37:55.741Z,89.05
2018-06-21T04:40:24.549Z,88.74
2018-06-21T04:42:53.363Z,88.79
2018-06-21T04:45:28.122Z,89.08
2018-06-21T04:47:57.083Z,89.41
2018-06-21T04:50:25.902Z,89.61
2018-06-21T04:52:54.665Z,90.49
2018-06-21T04:55:23.513Z,89.63
2018-06-21T04:57:52.118Z,90.09
2018-06-21T05:00:21.269Z,89.28
2018-06-21T05:02:50.387Z,88.05
2018-06-21T05:05:19.192Z,87.87
2018-06-21T05:07:47.976Z,86.94
2018-06-21T05:10:16.795Z,85.88
2018-06-21T05:12:45.620Z,85.81
2018-06-21T05:15:14.423Z,86.62
2018-06-21T05:17:43.228Z,86.97
2018-06-21T05:20:12.051Z,86.69
2018-06-21T05:22:41.057Z,86.69
2018-06-21T05:25:10.002Z,86.17
2018-06-21T05:27:39.044Z,86.50
2018-06-21T05:30:07.834Z,86.50
2018-06-21T05:32:36.645Z,86.45
2018-06-21T05:35:05.486Z,85.87
2018-06-21T05:37:34.521Z,85.99
2018-06-21T05:40:03.651Z,85.48
2018-06-21T05:42:32.550Z,86.20
2018-06-21T05:45:01.333Z,86.68
2018-06-21T05:47:30.163Z,86.93
2018-06-21T05:49:58.980Z,86.06
2018-06-21T05:52:27.796Z,86.13
2018-06-21T05:54:56.540Z,86.51
2018-06-21T05:57:25.348Z,86.94
2018-06-21T05:59:54.091Z,86.51
2018-06-21T06:02:22.995Z,86.99
2018-06-21T06:04:51.611Z,87.54
2018-06-21T06:07:20.679Z,86.24
2018-06-21T06:09:49.263Z,85.58
2018-06-21T06:12:20.716Z,85.81
2018-06-21T06:14:49.529Z,87.06
2018-06-21T06:17:18.357Z,85.83
2018-06-21T06:19:47.109Z,85.81
2018-06-21T06:22:16.009Z,85.76
2018-06-21T06:24:44.786Z,85.87
2018-06-21T06:27:13.714Z,86.02
2018-06-21T06:29:42.463Z,86.38
2018-06-21T06:32:11.202Z,86.07
2018-06-21T06:34:40.056Z,85.96
2018-06-21T06:37:08.614Z,85.93
2018-06-21T06:39:37.533Z,85.85
2018-06-21T06:42:06.406Z,85.81
2018-06-21T06:44:35.280Z,85.15
2018-06-21T06:47:04.217Z,85.72
2018-06-21T06:49:33.314Z,84.62
2018-06-21T06:52:02.383Z,84.09
2018-06-21T06:54:31.637Z,82.90
2018-06-21T06:57:00.203Z,83.17
2018-06-21T06:59:29.042Z,82.71
2018-06-21T07:01:57.799Z,82.84
2018-06-21T07:04:26.679Z,83.20
2018-06-21T07:06:55.436Z,82.91
2018-06-21T07:09:24.258Z,82.43
2018-06-21T07:11:53.033Z,81.32
2018-06-21T07:14:21.954Z,80.88
2018-06-21T07:16:50.765Z,81.35
2018-06-21T07:19:19.620Z,80.48
2018-06-21T07:21:48.434Z,79.72
2018-06-21T07:24:17.284Z,77.42
2018-06-21T07:26:46.149Z,75.61
2018-06-21T07:29:14.968Z,75.74
2018-06-21T07:31:43.775Z,76.25
2018-06-21T07:34:12.537Z,75.19
2018-06-21T07:36:41.413Z,76.01
2018-06-21T07:39:10.467Z,74.14
2018-06-21T07:41:39.413Z,72.15
2018-06-21T07:44:08.234Z,73.11
2018-06-21T07:46:37.182Z,72.38
2018-06-21T07:49:06.280Z,71.89
2018-06-21T07:51:34.985Z,72.61
2018-06-21T07:54:03.818Z,72.25
2018-06-21T07:56:32.651Z,71.51
2018-06-21T07:59:01.302Z,69.86
2018-06-21T08:01:30.104Z,71.47
2018-06-21T08:03:58.889Z,72.67
2018-06-21T08:06:27.794Z,71.19
2018-06-21T08:08:56.600Z,70.63
2018-06-21T08:11:25.430Z,70.89
2018-06-21T08:13:54.282Z,69.94
2018-06-21T08:16:23.060Z,68.19
2018-06-21T08:18:51.923Z,67.44
2018-06-21T08:21:21.149Z,68.08
2018-06-21T08:23:49.779Z,70.29
2018-06-21T08:26:18.602Z,68.96
2018-06-21T08:28:47.473Z,69.48
2018-06-21T08:31:16.467Z,68.21
2018-06-21T08:33:45.306Z,65.56
2018-06-21T08:36:14.301Z,65.65
2018-06-21T08:38:42.965Z,64.28
2018-06-21T08:41:11.782Z,66.11
2018-06-21T08:43:40.984Z,65.05
2018-06-21T08:46:09.833Z,65.68
2018-06-21T08:48:38.596Z,65.53
2018-06-21T08:51:07.437Z,64.72
2018-06-21T08:53:36.259Z,65.39
2018-06-21T08:56:05.135Z,66.43
2018-06-21T08:58:33.771Z,66.74
2018-06-21T09:01:02.551Z,64.01
2018-06-21T09:03:31.449Z,65.56
2018-06-21T09:06:00.241Z,65.89
2018-06-21T09:08:29.085Z,65.54
2018-06-21T09:10:57.730Z,65.71
2018-06-21T09:13:33.175Z,67.02
2018-06-21T09:16:02.745Z,66.93
2018-06-21T09:18:31.576Z,65.51
2018-06-21T09:21:00.729Z,65.53
2018-06-21T09:23:29.546Z,65.11
2018-06-21T09:25:58.353Z,66.10
2018-06-21T09:28:27.143Z,64.49
2018-06-21T09:30:56.054Z,63.98
2018-06-21T09:33:24.893Z,63.93
2018-06-21T09:35:54.081Z,64.53
2018-06-21T09:38:28.391Z,65.59
2018-06-21T09:41:02.677Z,66.53
2018-06-21T09:43:36.976Z,67.81
2018-06-21T09:46:11.339Z,72.16
2018-06-21T09:48:44.691Z,79.51
2018-06-21T09:51:13.567Z,80.29
2018-06-21T09:53:42.336Z,81.90
2018-06-21T09:56:11.144Z,82.07
2018-06-21T09:58:39.899Z,82.59
2018-06-21T10:01:08.701Z,81.84
2018-06-21T10:03:37.543Z,81.58
2018-06-21T10:06:06.367Z,83.39
2018-06-21T10:08:34.957Z,82.82
2018-06-21T10:11:03.768Z,83.07
2018-06-21T10:13:32.539Z,80.92
2018-06-21T10:16:01.408Z,80.71
2018-06-21T10:18:30.179Z,80.48
2018-06-21T10:20:58.974Z,80.47
2018-06-21T10:23:27.755Z,78.66
2018-06-21T10:25:56.584Z,78.26
2018-06-21T10:28:25.409Z,79.03
2018-06-21T10:30:54.232Z,78.88
2018-06-21T10:33:22.999Z,79.80
2018-06-21T10:35:51.842Z,79.33
2018-06-21T10:38:20.613Z,77.73
2018-06-21T10:40:49.424Z,77.07
2018-06-21T10:43:18.105Z,77.25
2018-06-21T10:45:52.779Z,78.59
2018-06-21T10:48:21.620Z,80.14
2018-06-21T10:50:50.443Z,81.18
2018-06-21T10:53:19.236Z,77.74
2018-06-21T10:55:48.006Z,82.60
2018-06-21T10:58:17.011Z,81.22
2018-06-21T11:00:45.864Z,81.15
2018-06-21T11:03:14.738Z,79.51
2018-06-21T11:05:43.556Z,78.97
2018-06-21T11:08:12.193Z,75.15
2018-06-21T11:10:40.977Z,75.51
2018-06-21T11:13:09.801Z,72.41
2018-06-21T11:15:38.683Z,72.70
2018-06-21T11:18:07.839Z,68.28
2018-06-21T11:20:36.603Z,70.16
2018-06-21T11:23:05.405Z,68.99
2018-06-21T11:25:34.025Z,67.24
2018-06-21T11:28:02.858Z,66.19
2018-06-21T11:30:31.664Z,64.77
2018-06-21T11:33:00.333Z,63.51
2018-06-21T11:35:29.230Z,64.76
2018-06-21T11:37:58.009Z,60.29
2018-06-21T11:40:26.935Z,61.82
2018-06-21T11:42:55.746Z,56.94
2018-06-21T11:45:30.588Z,57.36
2018-06-21T11:47:59.343Z,55.40
2018-06-21T11:50:28.216Z,54.66
2018-06-21T11:52:56.997Z,56.12
2018-06-21T11:55:25.817Z,56.74
2018-06-21T11:57:54.600Z,55.40
2018-06-21T12:00:23.235Z,53.82
2018-06-21T12:02:51.877Z,52.12
2018-06-21T12:05:20.496Z,52.15
2018-06-21T12:07:49.253Z,51.26
2018-06-21T12:10:17.849Z,51.27
2018-06-21T12:12:46.644Z,51.80
2018-06-21T12:15:15.499Z,52.40
2018-06-21T12:17:44.292Z,49.28
2018-06-21T12:20:13.056Z,49.73
2018-06-21T12:22:41.868Z,49.72
2018-06-21T12:25:10.867Z,48.37
2018-06-21T12:27:39.735Z,48.61
2018-06-21T12:30:08.485Z,48.50
2018-06-21T12:32:37.297Z,48.50
2018-06-21T12:35:06.195Z,47.83
2018-06-21T12:37:35.012Z,47.86
2018-06-21T12:40:03.923Z,47.68
2018-06-21T12:42:32.550Z,48.00
2018-06-21T12:45:01.352Z,47.80
2018-06-21T12:47:30.175Z,48.33
2018-06-21T12:49:58.919Z,49.49
2018-06-21T12:52:27.856Z,49.84
2018-06-21T12:54:56.598Z,45.76
2018-06-21T12:57:25.440Z,45.96
2018-06-21T12:59:54.190Z,46.55
2018-06-21T13:02:22.944Z,46.81
2018-06-21T13:04:51.794Z,46.56
2018-06-21T13:07:20.604Z,46.15
2018-06-21T13:10:00.413Z,47.07
2018-06-21T13:12:47.596Z,48.01
2018-06-21T13:15:16.415Z,60.02
2018-06-21T13:17:45.227Z,68.34
2018-06-21T13:20:13.988Z,66.82
2018-06-21T13:22:42.824Z,68.29
2018-06-21T13:25:11.620Z,71.82
2018-06-21T13:27:40.588Z,71.28
2018-06-21T13:30:10.104Z,69.08
2018-06-21T13:32:38.927Z,68.43
2018-06-21T13:35:08.284Z,66.44
2018-06-21T13:37:37.050Z,65.37
2018-06-21T13:40:05.789Z,62.35
2018-06-21T13:42:34.576Z,61.95
2018-06-21T13:45:03.639Z,59.03
2018-06-21T13:47:32.392Z,59.66
2018-06-21T13:50:01.184Z,55.90
2018-06-21T13:52:30.016Z,55.38
2018-06-21T13:54:58.859Z,56.49
2018-06-21T13:57:27.609Z,54.33
2018-06-21T13:59:56.416Z,54.83
2018-06-21T14:02:25.027Z,55.40
2018-06-21T14:04:53.900Z,56.47
2018-06-21T14:07:22.503Z,54.86
2018-06-21T14:09:51.315Z,55.51
2018-06-21T14:12:20.093Z,57.00
2018-06-21T14:14:48.958Z,57.17
2018-06-21T14:17:17.786Z,56.06
2018-06-21T14:19:46.592Z,56.80
2018-06-21T14:22:15.356Z,56.06
2018-06-21T14:24:44.164Z,55.28
2018-06-21T14:27:12.936Z,53.55
2018-06-21T14:29:42.224Z,54.35
2018-06-21T14:32:10.986Z,52.72
2018-06-21T14:34:39.626Z,53.61
2018-06-21T14:37:08.392Z,52.38
2018-06-21T14:39:37.193Z,53.35
2018-06-21T14:42:06.013Z,55.22
2018-06-21T14:44:35.104Z,53.71
2018-06-21T14:47:03.874Z,54.50
2018-06-21T14:49:32.889Z,55.13
2018-06-21T14:52:01.688Z,56.57
2018-06-21T14:54:30.505Z,56.07
2018-06-21T14:56:59.162Z,55.29
2018-06-21T14:59:28.105Z,54.43
2018-06-21T15:01:56.880Z,53.68
2018-06-21T15:04:25.475Z,52.76
2018-06-21T15:06:54.372Z,52.61
2018-06-21T15:09:23.123Z,51.33
2018-06-21T15:11:51.932Z,52.11
2018-06-21T15:23:33.907Z,70.69
2018-06-21T15:26:02.497Z,72.88
2018-06-21T15:28:31.360Z,72.12
2018-06-21T15:31:00.192Z,72.65
2018-06-21T15:33:29.023Z,72.08
2018-06-21T15:35:57.783Z,70.17
2018-06-21T15:38:26.578Z,68.52
2018-06-21T15:40:55.258Z,68.53
2018-06-21T15:44:48.537Z,67.93
2018-06-21T15:47:17.572Z,67.88
2018-06-21T15:49:46.363Z,67.65
2018-06-21T15:52:15.220Z,65.66
2018-06-21T15:54:43.961Z,66.26
2018-06-21T15:57:12.674Z,64.20
2018-06-21T15:59:41.398Z,61.59
2018-06-21T16:02:10.147Z,61.11
2018-06-21T16:04:39.012Z,62.03
2018-06-21T16:07:07.926Z,62.57
2018-06-21T16:09:36.708Z,62.18
2018-06-21T16:12:05.479Z,61.31
2018-06-21T16:14:34.591Z,58.99
2018-06-21T16:17:03.446Z,57.67
2018-06-21T16:19:32.248Z,54.84
2018-06-21T16:22:01.031Z,56.33
2018-06-21T16:24:29.888Z,56.72
2018-06-21T16:26:58.660Z,65.17
2018-06-21T16:29:27.835Z,71.08
2018-06-21T16:31:56.441Z,71.49
2018-06-21T16:34:25.228Z,72.43
2018-06-21T16:36:54.429Z,73.58
2018-06-21T16:39:23.251Z,72.35
2018-06-21T16:41:51.924Z,73.03
2018-06-21T16:44:20.797Z,73.91
2018-06-21T16:46:49.547Z,72.72
2018-06-21T16:49:18.352Z,72.13
2018-06-21T16:51:46.945Z,69.03
2018-06-21T16:54:15.816Z,67.66
2018-06-21T16:56:44.952Z,67.80
2018-06-21T16:59:13.739Z,69.04
2018-06-21T17:01:42.527Z,68.42
2018-06-21T17:04:11.271Z,69.01
2018-06-21T17:06:40.420Z,68.05
2018-06-21T17:09:09.863Z,67.52
2018-06-21T17:11:39.116Z,68.79
2018-06-21T17:14:07.876Z,69.78
2018-06-21T17:16:36.920Z,69.48
2018-06-21T17:19:06.539Z,68.69
2018-06-21T17:21:35.589Z,69.47
2018-06-21T17:24:04.243Z,67.94
2018-06-21T17:26:33.040Z,68.46
2018-06-21T17:29:01.792Z,68.40
2018-06-21T17:31:30.498Z,68.59
2018-06-21T17:33:59.255Z,69.18
2018-06-21T17:36:28.054Z,68.94
2018-06-21T17:38:56.835Z,66.19
2018-06-21T17:41:25.626Z,65.25
2018-06-21T17:43:54.472Z,65.81
2018-06-21T17:46:23.234Z,65.82
2018-06-21T17:48:52.036Z,65.48
2018-06-21T17:51:20.799Z,65.93
2018-06-21T17:53:49.607Z,64.99
2018-06-21T17:56:18.414Z,65.49
2018-06-21T17:58:47.208Z,65.01
2018-06-21T18:01:15.971Z,64.86
2018-06-21T18:03:44.787Z,64.51
2018-06-21T18:06:13.859Z,65.84
2018-06-21T18:08:42.735Z,65.83
2018-06-21T18:11:11.497Z,65.53
2018-06-21T18:13:40.403Z,65.88
2018-06-21T18:16:09.211Z,65.42
2018-06-21T18:18:38.002Z,65.91
2018-06-21T18:21:06.709Z,65.17
2018-06-21T18:23:35.526Z,63.83
2018-06-21T18:26:04.805Z,64.72
2018-06-21T18:28:33.611Z,63.83
2018-06-21T18:31:02.359Z,63.55
2018-06-21T18:33:31.260Z,63.12
2018-06-21T18:36:00.037Z,63.57
2018-06-21T18:38:28.848Z,63.58
2018-06-21T18:40:57.775Z,62.60
2018-06-21T18:43:27.657Z,62.58
2018-06-21T18:46:02.353Z,62.76
2018-06-21T18:48:31.220Z,63.40
2018-06-21T18:51:00.207Z,64.26
2018-06-21T18:53:28.946Z,65.48
2018-06-21T18:55:58.095Z,65.09
2018-06-21T18:58:26.691Z,65.02
2018-06-21T19:00:55.607Z,66.15
2018-06-21T19:03:24.480Z,65.92
2018-06-21T19:05:53.303Z,65.75
2018-06-21T19:08:27.403Z,66.03
2018-06-21T19:11:01.941Z,65.67
2018-06-21T19:13:30.723Z,65.79
2018-06-21T19:16:00.080Z,65.24
2018-06-21T19:18:28.891Z,64.77
2018-06-21T19:20:57.692Z,64.37
2018-06-21T19:23:26.459Z,64.26
2018-06-21T19:25:55.247Z,64.19
2018-06-21T19:28:24.572Z,64.48
2018-06-21T19:30:53.442Z,64.00
2018-06-21T19:33:22.205Z,64.45
2018-06-21T19:35:51.321Z,63.76
2018-06-21T19:38:19.917Z,64.25
2018-06-21T19:40:48.570Z,64.38
2018-06-21T19:43:17.522Z,64.08
2018-06-21T19:45:52.196Z,64.72
2018-06-21T19:48:20.953Z,64.80
2018-06-21T19:50:49.756Z,64.69
2018-06-21T19:53:18.592Z,65.04
2018-06-21T19:55:47.244Z,64.92
2018-06-21T19:58:16.001Z,65.34
2018-06-21T20:00:44.809Z,65.61
2018-06-21T20:03:13.683Z,66.72
2018-06-21T20:05:42.465Z,66.25
2018-06-21T20:08:11.266Z,66.70
2018-06-21T20:10:40.018Z,67.11
2018-06-21T20:13:08.807Z,67.21
2018-06-21T20:15:54.537Z,67.35
2018-06-21T20:18:23.402Z,67.94
2018-06-21T20:20:52.260Z,68.36
2018-06-21T20:23:21.585Z,68.97
2018-06-21T20:25:50.372Z,68.37
2018-06-21T20:28:19.063Z,68.53
2018-06-21T20:30:47.864Z,67.96
2018-06-21T20:33:16.672Z,68.36
2018-06-21T20:35:45.420Z,67.78
2018-06-21T20:38:14.307Z,68.38
2018-06-21T20:40:43.073Z,67.47
2018-06-21T20:43:11.992Z,67.91
2018-06-21T20:45:46.809Z,67.76
2018-06-21T20:48:15.885Z,67.71
2018-06-21T20:50:45.041Z,68.06
2018-06-21T20:53:13.904Z,68.05
2018-06-21T20:55:42.722Z,68.51
2018-06-21T20:58:11.556Z,68.82
2018-06-21T21:00:40.312Z,68.83
2018-06-21T21:03:09.335Z,69.08
2018-06-21T21:05:38.193Z,69.32
2018-06-21T21:08:07.463Z,70.28
2018-06-21T21:10:36.267Z,69.70
2018-06-21T21:13:05.075Z,69.76
2018-06-21T21:15:33.914Z,70.41
2018-06-21T21:18:02.756Z,70.50
2018-06-21T21:20:31.547Z,70.68
2018-06-21T21:23:00.344Z,71.46
2018-06-21T21:25:28.937Z,71.37
2018-06-21T21:27:57.674Z,72.28
2018-06-21T21:30:26.512Z,72.42
2018-06-21T21:32:55.247Z,73.14
2018-06-21T21:35:24.026Z,72.95
2018-06-21T21:37:52.772Z,73.19
2018-06-21T21:40:21.570Z,73.76
2018-06-21T21:42:50.381Z,73.76
2018-06-21T21:45:19.193Z,74.45
2018-06-21T21:47:47.975Z,75.62
2018-06-21T21:50:16.719Z,78.35
2018-06-21T21:52:45.512Z,78.59
2018-06-21T21:55:14.317Z,78.84
2018-06-21T21:57:43.164Z,78.40
2018-06-21T22:00:23.875Z,79.06
2018-06-21T22:02:52.671Z,79.40
2018-06-21T22:05:21.315Z,80.12
2018-06-21T22:07:49.935Z,81.30
2018-06-21T22:10:18.679Z,81.15
2018-06-21T22:12:47.558Z,81.81
2018-06-21T22:15:16.289Z,82.01
2018-06-21T22:17:44.983Z,82.37
2018-06-21T22:20:13.752Z,82.34
2018-06-21T22:22:42.551Z,82.38
2018-06-21T22:25:11.315Z,82.43
2018-06-21T22:27:39.950Z,82.25
2018-06-21T22:30:08.916Z,82.19
2018-06-21T22:32:37.705Z,82.18
2018-06-21T22:35:06.610Z,81.85
2018-06-21T22:37:35.441Z,82.49
2018-06-21T22:40:04.248Z,82.63
2018-06-21T22:42:33.688Z,82.89
2018-06-21T22:45:02.504Z,83.55
2018-06-21T22:47:31.391Z,83.23
2018-06-21T22:50:00.142Z,84.54
2018-06-21T22:52:28.734Z,83.74
2018-06-21T22:54:57.608Z,84.84
2018-06-21T22:57:26.411Z,85.00
2018-06-21T22:59:55.234Z,85.25
2018-06-21T23:02:24.068Z,85.11
2018-06-21T23:04:52.997Z,85.20
2018-06-21T23:07:21.853Z,84.80
2018-06-21T23:09:50.990Z,84.56
2018-06-21T23:12:19.776Z,84.57
2018-06-21T23:14:48.984Z,84.93
2018-06-21T23:17:17.768Z,84.53
2018-06-21T23:19:46.644Z,84.62
2018-06-21T23:22:15.254Z,84.97
2018-06-21T23:24:44.065Z,85.09
2018-06-21T23:27:12.845Z,84.69
2018-06-21T23:29:41.968Z,84.90
2018-06-21T23:32:10.779Z,84.74
2018-06-21T23:34:39.607Z,84.08
2018-06-21T23:37:08.616Z,84.36
2018-06-21T23:39:37.414Z,84.08
2018-06-21T23:42:06.256Z,84.76
2018-06-21T23:44:35.147Z,84.99
2018-06-21T23:47:03.774Z,84.88
2018-06-21T23:49:32.528Z,85.11
2018-06-21T23:52:01.395Z,84.87
2018-06-21T23:54:30.160Z,85.58
2018-06-21T23:56:59.035Z,85.15
2018-06-21T23:59:27.808Z,85.42
